createdAt,value
2022-10-29T00:03:48.526Z,15.3
2022-10-29T00:13:51.635Z,15.2
2022-10-29T00:23:52.969Z,15.1
2022-10-29T00:33:54.993Z,15.1
2022-10-29T00:43:56.915Z,15
2022-10-29T00:53:59.477Z,14.9
2022-10-29T01:04:00.991Z,14.9
2022-10-29T01:24:06.044Z,14.7
2022-10-29T01:34:08.761Z,14.6
2022-10-29T01:44:10.342Z,14.6
2022-10-29T01:54:12.285Z,14.5
2022-10-29T02:04:14.044Z,14.4
2022-10-29T02:14:16.561Z,14.2
2022-10-29T02:24:18.763Z,14
2022-10-29T02:34:21.170Z,13.9
2022-10-29T02:44:23.508Z,13.7
2022-10-29T02:54:26.098Z,13.6
2022-10-29T03:04:29.248Z,13.6
2022-10-29T03:14:30.585Z,13.5
2022-10-29T03:24:32.902Z,13.4
2022-10-29T03:34:34.899Z,13.5
2022-10-29T03:44:37.139Z,13.4
2022-10-29T04:04:42.115Z,13.2
2022-10-29T04:34:48.567Z,13.1
2022-10-29T04:44:51.215Z,13.2
2022-10-29T04:54:53.342Z,13.1
2022-10-29T05:04:55.207Z,12.9
2022-10-29T05:14:57.316Z,12.9
2022-10-29T05:35:01.715Z,13.1
2022-10-29T05:45:05.388Z,13.3
2022-10-29T05:55:05.746Z,13.5
2022-10-29T06:05:07.403Z,13.3
2022-10-29T06:25:11.444Z,13.4
2022-10-29T06:45:15.563Z,13.6
2022-10-29T06:55:18.071Z,13.7
2022-10-29T07:05:20.570Z,13.9
2022-10-29T07:15:30.454Z,14
2022-10-29T07:25:28.063Z,14
2022-10-29T07:55:31.483Z,14.6
2022-10-29T08:15:35.597Z,15.3
2022-10-29T08:45:41.417Z,16.6
2022-10-29T08:55:44.015Z,16.7
2022-10-29T09:05:46.073Z,17.1
2022-10-29T09:15:47.776Z,17.1
2022-10-29T09:25:49.975Z,17.2
2022-10-29T09:35:51.929Z,17.6
2022-10-29T09:55:56.387Z,17.9
2022-10-29T10:05:58.458Z,18.6
2022-10-29T10:16:00.213Z,18.8
2022-10-29T10:26:03.830Z,19.2
2022-10-29T10:36:04.022Z,19.9
2022-10-29T10:46:06.357Z,19.8
2022-10-29T10:56:08.835Z,20.3
2022-10-29T11:06:10.561Z,20.2
2022-10-29T11:16:13.142Z,21.3
2022-10-29T11:26:15.551Z,21.4
2022-10-29T11:36:17.838Z,21.7
2022-10-29T11:46:19.682Z,22.2
2022-10-29T11:56:21.318Z,22.5
2022-10-29T12:06:23.569Z,22.8
2022-10-29T12:16:25.842Z,23.1
2022-10-29T12:26:27.595Z,23.3
2022-10-29T12:46:32.384Z,22.9
2022-10-29T12:56:35.025Z,22.9
2022-10-29T13:06:37.614Z,23.2
2022-10-29T13:16:39.749Z,23.2
2022-10-29T13:26:41.673Z,23.1
2022-10-29T13:36:43.533Z,23
2022-10-29T13:46:46.014Z,23
2022-10-29T13:56:47.660Z,23.2
2022-10-29T14:06:50.295Z,23.1
2022-10-29T14:16:52.388Z,23.1
2022-10-29T14:26:54.302Z,23
2022-10-29T14:36:56.189Z,22.8
2022-10-29T14:46:58.569Z,22.7
2022-10-29T14:57:01.098Z,22.5
2022-10-29T15:07:03.467Z,22
2022-10-29T15:17:05.361Z,21.6
2022-10-29T15:27:07.822Z,21.1
2022-10-29T15:37:09.527Z,20.8
2022-10-29T15:47:11.554Z,20.5
2022-10-29T15:57:13.532Z,20.2
2022-10-29T16:07:15.709Z,19.5
2022-10-29T16:17:18.100Z,19.3
2022-10-29T16:27:20.086Z,19.1
2022-10-29T16:37:22.313Z,18.8
2022-10-29T16:47:24.346Z,18.5
2022-10-29T16:57:26.108Z,18.4
2022-10-29T17:07:27.876Z,18.2
2022-10-29T17:17:29.536Z,17.9
2022-10-29T17:27:31.599Z,17.7
2022-10-29T17:37:34.030Z,17.7
2022-10-29T17:37:55.981Z,17.7
2022-10-29T17:47:44.402Z,17.5
2022-10-29T17:57:46.343Z,17.6
2022-10-29T18:07:48.188Z,17.7
2022-10-29T18:27:52.522Z,17.2
2022-10-29T18:37:54.846Z,17.1
2022-10-29T18:47:56.906Z,16.9
2022-10-29T18:57:58.667Z,16.8
2022-10-29T19:08:01.327Z,16.7
2022-10-29T19:18:03.403Z,16.5
2022-10-29T19:28:05.995Z,16.3
2022-10-29T19:38:08.339Z,16.4
2022-10-29T19:48:10.325Z,16.3
2022-10-29T19:58:12.674Z,16.3
2022-10-29T20:08:15.934Z,16.2
2022-10-29T20:18:16.934Z,16
2022-10-29T20:28:18.856Z,15.8
2022-10-29T20:38:21.256Z,15.7
2022-10-29T20:48:23.459Z,15.6
2022-10-29T20:58:25.181Z,15.5
2022-10-29T21:18:29.252Z,15.6
2022-10-29T21:28:31.742Z,15.5
2022-10-29T21:38:33.620Z,15.3
2022-10-29T21:48:35.334Z,15.2
2022-10-29T21:58:37.298Z,15
2022-10-29T22:08:39.198Z,14.9
2022-10-29T22:18:41.810Z,14.7
2022-10-29T22:28:43.913Z,14.6
2022-10-29T22:38:45.883Z,14.4
2022-10-29T22:48:48.038Z,14.4
2022-10-29T22:58:50.448Z,14.4
2022-10-29T23:08:52.498Z,14.5
2022-10-29T23:18:55.079Z,14.5
2022-10-29T23:28:57.231Z,14.5
2022-10-29T23:38:59.368Z,14.7
2022-10-29T23:49:01.058Z,14.6
